sensor_id;sensor_type;location;lat;lon;timestamp;P1;durP1;ratioP1;P2;durP2;ratioP2
73597;SDS011;61874;48.146;11.594;2022-08-19T00:00:19;5.20;;;2.53;;
73597;SDS011;61874;48.146;11.594;2022-08-19T00:02:44;4.38;;;2.40;;
73597;SDS011;61874;48.146;11.594;2022-08-19T00:05:12;5.47;;;2.40;;
73597;SDS011;61874;48.146;11.594;2022-08-19T00:07:39;4.75;;;2.92;;
73597;SDS011;61874;48.146;11.594;2022-08-19T00:10:08;5.78;;;2.90;;
73597;SDS011;61874;48.146;11.594;2022-08-19T00:12:35;5.35;;;2.63;;
73597;SDS011;61874;48.146;11.594;2022-08-19T00:15:02;4.45;;;2.40;;
73597;SDS011;61874;48.146;11.594;2022-08-19T00:17:29;4.60;;;2.42;;
73597;SDS011;61874;48.146;11.594;2022-08-19T00:19:55;4.95;;;2.95;;
73597;SDS011;61874;48.146;11.594;2022-08-19T00:22:20;5.28;;;2.85;;
73597;SDS011;61874;48.146;11.594;2022-08-19T00:24:46;7.55;;;3.60;;
73597;SDS011;61874;48.146;11.594;2022-08-19T00:27:12;5.45;;;3.15;;
73597;SDS011;61874;48.146;11.594;2022-08-19T00:29:37;5.15;;;3.10;;
73597;SDS011;61874;48.146;11.594;2022-08-19T00:32:03;5.03;;;2.88;;
73597;SDS011;61874;48.146;11.594;2022-08-19T00:34:29;5.68;;;3.00;;
73597;SDS011;61874;48.146;11.594;2022-08-19T00:36:55;7.18;;;3.50;;
73597;SDS011;61874;48.146;11.594;2022-08-19T00:39:21;5.55;;;3.22;;
73597;SDS011;61874;48.146;11.594;2022-08-19T00:41:47;5.90;;;3.33;;
73597;SDS011;61874;48.146;11.594;2022-08-19T00:46:42;5.57;;;3.30;;
73597;SDS011;61874;48.146;11.594;2022-08-19T00:49:20;7.07;;;3.92;;
73597;SDS011;61874;48.146;11.594;2022-08-19T00:51:50;6.65;;;3.35;;
73597;SDS011;61874;48.146;11.594;2022-08-19T00:54:22;5.90;;;3.60;;
73597;SDS011;61874;48.146;11.594;2022-08-19T00:56:48;7.05;;;3.00;;
73597;SDS011;61874;48.146;11.594;2022-08-19T00:59:15;5.90;;;3.40;;
73597;SDS011;61874;48.146;11.594;2022-08-19T01:01:43;6.82;;;3.78;;
73597;SDS011;61874;48.146;11.594;2022-08-19T01:06:36;6.47;;;3.78;;
73597;SDS011;61874;48.146;11.594;2022-08-19T01:09:04;7.25;;;4.35;;
73597;SDS011;61874;48.146;11.594;2022-08-19T01:11:30;8.50;;;4.10;;
73597;SDS011;61874;48.146;11.594;2022-08-19T01:16:24;8.77;;;4.85;;
73597;SDS011;61874;48.146;11.594;2022-08-19T01:18:51;7.78;;;4.47;;
73597;SDS011;61874;48.146;11.594;2022-08-19T01:23:48;9.13;;;4.97;;
73597;SDS011;61874;48.146;11.594;2022-08-19T01:26:15;7.32;;;4.18;;
73597;SDS011;61874;48.146;11.594;2022-08-19T01:28:43;9.75;;;4.95;;
73597;SDS011;61874;48.146;11.594;2022-08-19T01:31:13;7.30;;;4.80;;
73597;SDS011;61874;48.146;11.594;2022-08-19T01:33:43;8.60;;;5.40;;
73597;SDS011;61874;48.146;11.594;2022-08-19T01:36:14;8.57;;;5.30;;
73597;SDS011;61874;48.146;11.594;2022-08-19T01:38:47;7.45;;;4.72;;
73597;SDS011;61874;48.146;11.594;2022-08-19T01:41:13;8.88;;;5.78;;
73597;SDS011;61874;48.146;11.594;2022-08-19T01:43:39;10.80;;;5.40;;
73597;SDS011;61874;48.146;11.594;2022-08-19T01:46:05;10.93;;;5.28;;
73597;SDS011;61874;48.146;11.594;2022-08-19T01:48:38;9.98;;;4.60;;
73597;SDS011;61874;48.146;11.594;2022-08-19T01:51:05;8.25;;;4.97;;
73597;SDS011;61874;48.146;11.594;2022-08-19T01:53:31;10.07;;;5.22;;
73597;SDS011;61874;48.146;11.594;2022-08-19T01:55:57;8.77;;;5.10;;
73597;SDS011;61874;48.146;11.594;2022-08-19T01:58:29;6.90;;;4.00;;
73597;SDS011;61874;48.146;11.594;2022-08-19T02:01:01;7.63;;;4.10;;
73597;SDS011;61874;48.146;11.594;2022-08-19T02:03:26;8.80;;;4.97;;
73597;SDS011;61874;48.146;11.594;2022-08-19T02:05:56;9.55;;;4.30;;
73597;SDS011;61874;48.146;11.594;2022-08-19T02:08:25;8.88;;;4.40;;
73597;SDS011;61874;48.146;11.594;2022-08-19T02:10:54;7.80;;;4.35;;
73597;SDS011;61874;48.146;11.594;2022-08-19T02:13:19;8.15;;;4.55;;
73597;SDS011;61874;48.146;11.594;2022-08-19T02:15:45;7.65;;;4.38;;
73597;SDS011;61874;48.146;11.594;2022-08-19T02:18:10;7.20;;;4.53;;
73597;SDS011;61874;48.146;11.594;2022-08-19T02:20:37;7.20;;;4.22;;
73597;SDS011;61874;48.146;11.594;2022-08-19T02:23:03;6.25;;;3.70;;
73597;SDS011;61874;48.146;11.594;2022-08-19T02:25:29;7.93;;;4.22;;
73597;SDS011;61874;48.146;11.594;2022-08-19T02:27:55;8.43;;;4.47;;
73597;SDS011;61874;48.146;11.594;2022-08-19T02:30:20;6.85;;;3.92;;
73597;SDS011;61874;48.146;11.594;2022-08-19T02:32:46;7.95;;;3.95;;
73597;SDS011;61874;48.146;11.594;2022-08-19T02:35:12;6.18;;;3.83;;
73597;SDS011;61874;48.146;11.594;2022-08-19T02:37:38;6.72;;;4.07;;
73597;SDS011;61874;48.146;11.594;2022-08-19T02:40:24;7.32;;;3.60;;
73597;SDS011;61874;48.146;11.594;2022-08-19T02:42:49;6.22;;;3.75;;
73597;SDS011;61874;48.146;11.594;2022-08-19T02:45:15;5.90;;;3.67;;
73597;SDS011;61874;48.146;11.594;2022-08-19T02:47:41;7.82;;;3.75;;
73597;SDS011;61874;48.146;11.594;2022-08-19T02:50:06;6.20;;;3.75;;
73597;SDS011;61874;48.146;11.594;2022-08-19T02:52:33;7.32;;;3.88;;
73597;SDS011;61874;48.146;11.594;2022-08-19T02:54:59;7.75;;;3.70;;
73597;SDS011;61874;48.146;11.594;2022-08-19T02:57:26;6.65;;;3.85;;
73597;SDS011;61874;48.146;11.594;2022-08-19T02:59:52;7.53;;;4.00;;
73597;SDS011;61874;48.146;11.594;2022-08-19T03:02:18;6.80;;;3.58;;
73597;SDS011;61874;48.146;11.594;2022-08-19T03:04:43;5.85;;;3.42;;
73597;SDS011;61874;48.146;11.594;2022-08-19T03:07:09;8.05;;;3.78;;
73597;SDS011;61874;48.146;11.594;2022-08-19T03:09:38;6.85;;;3.28;;
73597;SDS011;61874;48.146;11.594;2022-08-19T03:12:04;6.68;;;3.58;;
73597;SDS011;61874;48.146;11.594;2022-08-19T03:14:30;7.05;;;4.00;;
73597;SDS011;61874;48.146;11.594;2022-08-19T03:16:57;7.75;;;3.30;;
73597;SDS011;61874;48.146;11.594;2022-08-19T03:19:23;7.07;;;3.80;;
73597;SDS011;61874;48.146;11.594;2022-08-19T03:21:48;5.75;;;3.50;;
73597;SDS011;61874;48.146;11.594;2022-08-19T03:24:14;8.43;;;3.85;;
73597;SDS011;61874;48.146;11.594;2022-08-19T03:26:46;6.38;;;3.30;;
73597;SDS011;61874;48.146;11.594;2022-08-19T03:29:14;7.25;;;4.13;;
73597;SDS011;61874;48.146;11.594;2022-08-19T03:31:41;6.90;;;3.75;;
73597;SDS011;61874;48.146;11.594;2022-08-19T03:34:08;6.22;;;3.30;;
73597;SDS011;61874;48.146;11.594;2022-08-19T03:36:36;5.47;;;3.22;;
73597;SDS011;61874;48.146;11.594;2022-08-19T03:39:02;7.35;;;3.20;;
73597;SDS011;61874;48.146;11.594;2022-08-19T03:41:30;5.85;;;3.17;;
73597;SDS011;61874;48.146;11.594;2022-08-19T03:43:58;6.05;;;3.42;;
73597;SDS011;61874;48.146;11.594;2022-08-19T03:46:26;4.78;;;3.25;;
73597;SDS011;61874;48.146;11.594;2022-08-19T03:48:54;5.32;;;3.08;;
73597;SDS011;61874;48.146;11.594;2022-08-19T03:51:26;6.25;;;3.40;;
73597;SDS011;61874;48.146;11.594;2022-08-19T03:53:53;7.38;;;3.47;;
73597;SDS011;61874;48.146;11.594;2022-08-19T03:56:20;6.65;;;3.58;;
73597;SDS011;61874;48.146;11.594;2022-08-19T03:58:46;7.03;;;3.70;;
73597;SDS011;61874;48.146;11.594;2022-08-19T04:01:14;7.22;;;3.53;;
73597;SDS011;61874;48.146;11.594;2022-08-19T04:03:42;8.05;;;3.83;;
73597;SDS011;61874;48.146;11.594;2022-08-19T04:06:10;6.55;;;3.33;;
73597;SDS011;61874;48.146;11.594;2022-08-19T04:08:38;7.85;;;3.67;;
73597;SDS011;61874;48.146;11.594;2022-08-19T04:11:11;7.03;;;3.35;;
73597;SDS011;61874;48.146;11.594;2022-08-19T04:13:39;5.43;;;3.05;;
73597;SDS011;61874;48.146;11.594;2022-08-19T04:16:05;6.28;;;3.85;;
73597;SDS011;61874;48.146;11.594;2022-08-19T04:18:32;6.22;;;3.33;;
73597;SDS011;61874;48.146;11.594;2022-08-19T04:20:58;6.85;;;3.88;;
73597;SDS011;61874;48.146;11.594;2022-08-19T04:23:24;6.20;;;3.90;;
73597;SDS011;61874;48.146;11.594;2022-08-19T04:25:49;9.43;;;4.43;;
73597;SDS011;61874;48.146;11.594;2022-08-19T04:28:15;7.95;;;3.90;;
73597;SDS011;61874;48.146;11.594;2022-08-19T04:30:48;7.18;;;3.92;;
73597;SDS011;61874;48.146;11.594;2022-08-19T04:33:16;7.18;;;4.25;;
73597;SDS011;61874;48.146;11.594;2022-08-19T04:35:45;8.68;;;4.40;;
73597;SDS011;61874;48.146;11.594;2022-08-19T04:38:13;7.93;;;4.07;;
73597;SDS011;61874;48.146;11.594;2022-08-19T04:40:40;9.50;;;5.03;;
73597;SDS011;61874;48.146;11.594;2022-08-19T04:43:25;9.25;;;4.63;;
73597;SDS011;61874;48.146;11.594;2022-08-19T04:45:51;7.60;;;4.10;;
73597;SDS011;61874;48.146;11.594;2022-08-19T04:48:17;8.55;;;4.15;;
73597;SDS011;61874;48.146;11.594;2022-08-19T04:50:51;8.00;;;4.57;;
73597;SDS011;61874;48.146;11.594;2022-08-19T04:53:22;7.90;;;3.97;;
73597;SDS011;61874;48.146;11.594;2022-08-19T04:55:49;10.18;;;5.32;;
73597;SDS011;61874;48.146;11.594;2022-08-19T04:58:14;7.60;;;4.07;;
73597;SDS011;61874;48.146;11.594;2022-08-19T05:00:41;8.30;;;4.50;;
73597;SDS011;61874;48.146;11.594;2022-08-19T05:03:06;8.52;;;4.78;;
73597;SDS011;61874;48.146;11.594;2022-08-19T05:05:32;7.97;;;4.35;;
73597;SDS011;61874;48.146;11.594;2022-08-19T05:07:57;7.07;;;4.25;;
73597;SDS011;61874;48.146;11.594;2022-08-19T05:10:23;9.35;;;5.00;;
73597;SDS011;61874;48.146;11.594;2022-08-19T05:12:48;7.18;;;4.15;;
73597;SDS011;61874;48.146;11.594;2022-08-19T05:15:14;9.30;;;4.43;;
73597;SDS011;61874;48.146;11.594;2022-08-19T05:17:39;8.00;;;3.90;;
73597;SDS011;61874;48.146;11.594;2022-08-19T05:23:10;8.32;;;4.95;;
73597;SDS011;61874;48.146;11.594;2022-08-19T05:25:38;8.18;;;4.53;;
73597;SDS011;61874;48.146;11.594;2022-08-19T05:28:04;8.18;;;4.25;;
73597;SDS011;61874;48.146;11.594;2022-08-19T05:30:30;9.50;;;5.45;;
73597;SDS011;61874;48.146;11.594;2022-08-19T05:32:55;7.65;;;4.38;;
73597;SDS011;61874;48.146;11.594;2022-08-19T05:35:21;6.53;;;4.03;;
73597;SDS011;61874;48.146;11.594;2022-08-19T05:37:49;9.45;;;4.38;;
73597;SDS011;61874;48.146;11.594;2022-08-19T05:40:14;8.63;;;4.78;;
73597;SDS011;61874;48.146;11.594;2022-08-19T05:42:40;8.35;;;4.38;;
73597;SDS011;61874;48.146;11.594;2022-08-19T05:45:06;7.93;;;3.90;;
73597;SDS011;61874;48.146;11.594;2022-08-19T05:47:32;7.88;;;4.32;;
73597;SDS011;61874;48.146;11.594;2022-08-19T05:49:57;8.75;;;4.70;;
73597;SDS011;61874;48.146;11.594;2022-08-19T05:52:22;7.82;;;4.38;;
73597;SDS011;61874;48.146;11.594;2022-08-19T05:54:48;7.60;;;3.92;;
73597;SDS011;61874;48.146;11.594;2022-08-19T05:57:15;7.43;;;4.28;;
73597;SDS011;61874;48.146;11.594;2022-08-19T05:59:41;9.70;;;4.80;;
73597;SDS011;61874;48.146;11.594;2022-08-19T06:02:07;7.10;;;4.45;;
73597;SDS011;61874;48.146;11.594;2022-08-19T06:04:33;9.75;;;5.38;;
73597;SDS011;61874;48.146;11.594;2022-08-19T06:06:58;9.02;;;5.40;;
73597;SDS011;61874;48.146;11.594;2022-08-19T06:09:24;8.65;;;4.70;;
73597;SDS011;61874;48.146;11.594;2022-08-19T06:11:54;10.13;;;4.90;;
73597;SDS011;61874;48.146;11.594;2022-08-19T06:14:25;9.48;;;5.35;;
73597;SDS011;61874;48.146;11.594;2022-08-19T06:16:55;9.40;;;5.25;;
73597;SDS011;61874;48.146;11.594;2022-08-19T06:19:21;9.93;;;5.63;;
73597;SDS011;61874;48.146;11.594;2022-08-19T06:21:49;11.00;;;5.50;;
73597;SDS011;61874;48.146;11.594;2022-08-19T06:24:17;9.45;;;5.47;;
73597;SDS011;61874;48.146;11.594;2022-08-19T06:26:47;8.65;;;4.90;;
73597;SDS011;61874;48.146;11.594;2022-08-19T06:29:14;9.88;;;5.78;;
73597;SDS011;61874;48.146;11.594;2022-08-19T06:31:42;9.20;;;5.63;;
73597;SDS011;61874;48.146;11.594;2022-08-19T06:34:10;11.95;;;5.35;;
73597;SDS011;61874;48.146;11.594;2022-08-19T06:36:37;8.93;;;5.32;;
73597;SDS011;61874;48.146;11.594;2022-08-19T06:39:16;10.30;;;6.25;;
73597;SDS011;61874;48.146;11.594;2022-08-19T06:41:48;10.40;;;5.68;;
73597;SDS011;61874;48.146;11.594;2022-08-19T06:44:14;10.43;;;6.40;;
73597;SDS011;61874;48.146;11.594;2022-08-19T06:46:41;10.18;;;6.70;;
73597;SDS011;61874;48.146;11.594;2022-08-19T06:49:06;10.65;;;6.30;;
73597;SDS011;61874;48.146;11.594;2022-08-19T06:51:35;12.40;;;7.15;;
73597;SDS011;61874;48.146;11.594;2022-08-19T06:54:00;13.25;;;7.65;;
73597;SDS011;61874;48.146;11.594;2022-08-19T06:56:28;11.98;;;7.40;;
73597;SDS011;61874;48.146;11.594;2022-08-19T06:59:00;12.48;;;7.82;;
73597;SDS011;61874;48.146;11.594;2022-08-19T07:01:34;13.75;;;7.53;;
73597;SDS011;61874;48.146;11.594;2022-08-19T07:04:06;11.68;;;6.22;;
73597;SDS011;61874;48.146;11.594;2022-08-19T07:06:33;16.98;;;8.55;;
73597;SDS011;61874;48.146;11.594;2022-08-19T07:09:00;12.60;;;7.93;;
73597;SDS011;61874;48.146;11.594;2022-08-19T07:11:25;13.95;;;8.10;;
73597;SDS011;61874;48.146;11.594;2022-08-19T07:13:52;12.68;;;7.88;;
73597;SDS011;61874;48.146;11.594;2022-08-19T07:16:18;13.55;;;7.72;;
73597;SDS011;61874;48.146;11.594;2022-08-19T07:18:45;16.02;;;8.52;;
73597;SDS011;61874;48.146;11.594;2022-08-19T07:21:21;15.63;;;8.70;;
73597;SDS011;61874;48.146;11.594;2022-08-19T07:23:52;16.05;;;8.00;;
73597;SDS011;61874;48.146;11.594;2022-08-19T07:26:24;14.73;;;8.82;;
73597;SDS011;61874;48.146;11.594;2022-08-19T07:28:52;13.70;;;7.38;;
73597;SDS011;61874;48.146;11.594;2022-08-19T07:31:18;14.13;;;8.07;;
73597;SDS011;61874;48.146;11.594;2022-08-19T07:33:46;16.50;;;8.32;;
73597;SDS011;61874;48.146;11.594;2022-08-19T07:36:14;12.65;;;8.00;;
73597;SDS011;61874;48.146;11.594;2022-08-19T07:38:44;15.80;;;8.85;;
73597;SDS011;61874;48.146;11.594;2022-08-19T07:41:13;16.70;;;9.90;;
73597;SDS011;61874;48.146;11.594;2022-08-19T07:43:41;16.20;;;9.50;;
73597;SDS011;61874;48.146;11.594;2022-08-19T07:46:08;16.50;;;9.45;;
73597;SDS011;61874;48.146;11.594;2022-08-19T07:48:35;15.35;;;8.95;;
73597;SDS011;61874;48.146;11.594;2022-08-19T07:51:02;15.85;;;9.75;;
73597;SDS011;61874;48.146;11.594;2022-08-19T07:53:30;17.55;;;9.93;;
73597;SDS011;61874;48.146;11.594;2022-08-19T07:55:57;17.35;;;10.43;;
73597;SDS011;61874;48.146;11.594;2022-08-19T07:58:29;16.80;;;9.57;;
73597;SDS011;61874;48.146;11.594;2022-08-19T08:00:59;17.27;;;9.88;;
73597;SDS011;61874;48.146;11.594;2022-08-19T08:03:26;20.30;;;11.25;;
73597;SDS011;61874;48.146;11.594;2022-08-19T08:06:12;16.83;;;9.80;;
73597;SDS011;61874;48.146;11.594;2022-08-19T08:08:57;18.33;;;11.02;;
73597;SDS011;61874;48.146;11.594;2022-08-19T08:11:43;21.15;;;12.30;;
73597;SDS011;61874;48.146;11.594;2022-08-19T08:14:15;21.45;;;11.95;;
73597;SDS011;61874;48.146;11.594;2022-08-19T08:16:43;20.48;;;11.07;;
73597;SDS011;61874;48.146;11.594;2022-08-19T08:19:10;22.17;;;11.73;;
73597;SDS011;61874;48.146;11.594;2022-08-19T08:21:39;22.52;;;10.95;;
73597;SDS011;61874;48.146;11.594;2022-08-19T08:24:05;22.98;;;11.70;;
73597;SDS011;61874;48.146;11.594;2022-08-19T08:26:31;19.60;;;11.13;;
73597;SDS011;61874;48.146;11.594;2022-08-19T08:28:56;23.13;;;11.90;;
73597;SDS011;61874;48.146;11.594;2022-08-19T08:31:22;19.00;;;11.27;;
73597;SDS011;61874;48.146;11.594;2022-08-19T08:33:48;23.33;;;12.90;;
73597;SDS011;61874;48.146;11.594;2022-08-19T08:36:14;21.17;;;11.15;;
73597;SDS011;61874;48.146;11.594;2022-08-19T08:38:40;19.85;;;11.35;;
73597;SDS011;61874;48.146;11.594;2022-08-19T08:41:13;21.23;;;11.63;;
73597;SDS011;61874;48.146;11.594;2022-08-19T08:43:44;18.92;;;10.77;;
73597;SDS011;61874;48.146;11.594;2022-08-19T08:51:40;22.45;;;12.23;;
73597;SDS011;61874;48.146;11.594;2022-08-19T08:54:08;19.65;;;11.50;;
73597;SDS011;61874;48.146;11.594;2022-08-19T08:56:38;20.10;;;11.23;;
73597;SDS011;61874;48.146;11.594;2022-08-19T08:59:15;20.65;;;12.23;;
73597;SDS011;61874;48.146;11.594;2022-08-19T09:01:45;20.80;;;12.27;;
73597;SDS011;61874;48.146;11.594;2022-08-19T09:04:11;22.95;;;12.55;;
73597;SDS011;61874;48.146;11.594;2022-08-19T09:09:25;22.63;;;12.20;;
73597;SDS011;61874;48.146;11.594;2022-08-19T09:12:10;24.70;;;13.57;;
73597;SDS011;61874;48.146;11.594;2022-08-19T09:17:19;20.58;;;11.63;;
73597;SDS011;61874;48.146;11.594;2022-08-19T09:20:04;20.02;;;12.10;;
73597;SDS011;61874;48.146;11.594;2022-08-19T09:22:36;19.00;;;11.43;;
73597;SDS011;61874;48.146;11.594;2022-08-19T09:25:03;21.00;;;11.88;;
73597;SDS011;61874;48.146;11.594;2022-08-19T09:27:31;21.55;;;11.65;;
73597;SDS011;61874;48.146;11.594;2022-08-19T09:29:57;23.92;;;11.85;;
73597;SDS011;61874;48.146;11.594;2022-08-19T09:32:23;18.85;;;10.65;;
73597;SDS011;61874;48.146;11.594;2022-08-19T09:34:50;17.15;;;10.48;;
73597;SDS011;61874;48.146;11.594;2022-08-19T09:37:17;19.48;;;10.57;;
73597;SDS011;61874;48.146;11.594;2022-08-19T09:39:43;19.98;;;11.90;;
73597;SDS011;61874;48.146;11.594;2022-08-19T09:42:09;23.42;;;12.02;;
73597;SDS011;61874;48.146;11.594;2022-08-19T09:44:41;24.35;;;12.38;;
73597;SDS011;61874;48.146;11.594;2022-08-19T09:47:11;24.60;;;12.10;;
73597;SDS011;61874;48.146;11.594;2022-08-19T09:49:38;25.35;;;11.85;;
73597;SDS011;61874;48.146;11.594;2022-08-19T09:52:04;26.35;;;12.65;;
73597;SDS011;61874;48.146;11.594;2022-08-19T09:54:32;23.38;;;12.07;;
73597;SDS011;61874;48.146;11.594;2022-08-19T09:56:59;20.48;;;11.98;;
73597;SDS011;61874;48.146;11.594;2022-08-19T09:59:25;21.27;;;11.57;;
73597;SDS011;61874;48.146;11.594;2022-08-19T10:01:51;18.15;;;9.38;;
73597;SDS011;61874;48.146;11.594;2022-08-19T10:04:17;18.63;;;9.70;;
73597;SDS011;61874;48.146;11.594;2022-08-19T10:06:42;18.63;;;9.70;;
73597;SDS011;61874;48.146;11.594;2022-08-19T10:09:08;18.77;;;9.98;;
73597;SDS011;61874;48.146;11.594;2022-08-19T10:14:03;17.45;;;8.90;;
73597;SDS011;61874;48.146;11.594;2022-08-19T10:16:32;14.00;;;8.77;;
73597;SDS011;61874;48.146;11.594;2022-08-19T10:18:58;19.77;;;9.57;;
73597;SDS011;61874;48.146;11.594;2022-08-19T10:21:29;15.55;;;8.77;;
73597;SDS011;61874;48.146;11.594;2022-08-19T10:23:56;17.38;;;8.77;;
73597;SDS011;61874;48.146;11.594;2022-08-19T10:26:25;15.35;;;8.25;;
73597;SDS011;61874;48.146;11.594;2022-08-19T10:28:53;16.33;;;9.23;;
73597;SDS011;61874;48.146;11.594;2022-08-19T10:31:20;15.65;;;8.70;;
73597;SDS011;61874;48.146;11.594;2022-08-19T10:33:47;14.88;;;8.40;;
73597;SDS011;61874;48.146;11.594;2022-08-19T10:36:14;14.57;;;8.20;;
73597;SDS011;61874;48.146;11.594;2022-08-19T10:38:43;13.25;;;8.38;;
73597;SDS011;61874;48.146;11.594;2022-08-19T10:41:13;15.45;;;8.30;;
73597;SDS011;61874;48.146;11.594;2022-08-19T10:43:40;12.45;;;7.88;;
73597;SDS011;61874;48.146;11.594;2022-08-19T10:46:07;12.35;;;7.00;;
73597;SDS011;61874;48.146;11.594;2022-08-19T10:48:34;13.38;;;7.13;;
73597;SDS011;61874;48.146;11.594;2022-08-19T10:51:00;13.45;;;7.82;;
73597;SDS011;61874;48.146;11.594;2022-08-19T10:53:44;12.82;;;8.38;;
73597;SDS011;61874;48.146;11.594;2022-08-19T10:56:10;12.60;;;7.50;;
73597;SDS011;61874;48.146;11.594;2022-08-19T10:58:54;11.18;;;6.97;;
73597;SDS011;61874;48.146;11.594;2022-08-19T11:01:21;15.75;;;8.50;;
73597;SDS011;61874;48.146;11.594;2022-08-19T11:03:47;16.58;;;9.57;;
73597;SDS011;61874;48.146;11.594;2022-08-19T11:06:12;15.55;;;8.95;;
73597;SDS011;61874;48.146;11.594;2022-08-19T11:08:38;14.63;;;7.78;;
73597;SDS011;61874;48.146;11.594;2022-08-19T11:11:04;15.48;;;8.10;;
73597;SDS011;61874;48.146;11.594;2022-08-19T11:13:31;14.70;;;8.57;;
73597;SDS011;61874;48.146;11.594;2022-08-19T11:16:02;13.70;;;8.70;;
73597;SDS011;61874;48.146;11.594;2022-08-19T11:18:31;13.15;;;7.78;;
73597;SDS011;61874;48.146;11.594;2022-08-19T11:21:04;12.32;;;6.97;;
73597;SDS011;61874;48.146;11.594;2022-08-19T11:23:32;12.98;;;7.80;;
73597;SDS011;61874;48.146;11.594;2022-08-19T11:25:57;13.65;;;7.15;;
73597;SDS011;61874;48.146;11.594;2022-08-19T11:28:24;13.63;;;7.63;;
73597;SDS011;61874;48.146;11.594;2022-08-19T11:30:49;13.52;;;7.38;;
73597;SDS011;61874;48.146;11.594;2022-08-19T11:33:15;11.32;;;7.40;;
73597;SDS011;61874;48.146;11.594;2022-08-19T11:35:40;12.77;;;7.10;;
73597;SDS011;61874;48.146;11.594;2022-08-19T11:38:06;13.27;;;7.20;;
73597;SDS011;61874;48.146;11.594;2022-08-19T11:40:31;10.20;;;5.88;;
73597;SDS011;61874;48.146;11.594;2022-08-19T11:42:58;10.15;;;6.22;;
73597;SDS011;61874;48.146;11.594;2022-08-19T11:45:24;11.50;;;6.20;;
73597;SDS011;61874;48.146;11.594;2022-08-19T11:47:51;8.82;;;5.13;;
73597;SDS011;61874;48.146;11.594;2022-08-19T11:50:17;6.95;;;3.90;;
73597;SDS011;61874;48.146;11.594;2022-08-19T11:52:43;6.53;;;3.75;;
73597;SDS011;61874;48.146;11.594;2022-08-19T11:55:10;8.02;;;3.97;;
73597;SDS011;61874;48.146;11.594;2022-08-19T11:57:36;5.60;;;3.55;;
73597;SDS011;61874;48.146;11.594;2022-08-19T12:00:02;5.35;;;3.13;;
73597;SDS011;61874;48.146;11.594;2022-08-19T12:02:30;5.88;;;3.30;;
73597;SDS011;61874;48.146;11.594;2022-08-19T12:04:56;5.50;;;2.72;;
73597;SDS011;61874;48.146;11.594;2022-08-19T12:07:22;5.72;;;3.17;;
73597;SDS011;61874;48.146;11.594;2022-08-19T12:09:47;3.92;;;2.17;;
73597;SDS011;61874;48.146;11.594;2022-08-19T12:12:13;4.43;;;2.53;;
73597;SDS011;61874;48.146;11.594;2022-08-19T12:14:39;3.40;;;1.85;;
73597;SDS011;61874;48.146;11.594;2022-08-19T12:17:04;3.88;;;2.00;;
73597;SDS011;61874;48.146;11.594;2022-08-19T12:19:32;3.38;;;1.83;;
73597;SDS011;61874;48.146;11.594;2022-08-19T12:21:59;3.60;;;1.90;;
73597;SDS011;61874;48.146;11.594;2022-08-19T12:24:28;2.80;;;1.40;;
73597;SDS011;61874;48.146;11.594;2022-08-19T12:26:56;2.72;;;1.20;;
73597;SDS011;61874;48.146;11.594;2022-08-19T12:29:23;3.20;;;1.30;;
73597;SDS011;61874;48.146;11.594;2022-08-19T12:31:54;4.22;;;1.40;;
73597;SDS011;61874;48.146;11.594;2022-08-19T12:34:25;2.88;;;1.50;;
73597;SDS011;61874;48.146;11.594;2022-08-19T12:36:51;2.88;;;1.20;;
73597;SDS011;61874;48.146;11.594;2022-08-19T12:39:16;2.75;;;1.45;;
73597;SDS011;61874;48.146;11.594;2022-08-19T12:41:42;2.80;;;1.45;;
73597;SDS011;61874;48.146;11.594;2022-08-19T12:44:07;2.97;;;1.08;;
73597;SDS011;61874;48.146;11.594;2022-08-19T12:46:33;3.25;;;1.50;;
73597;SDS011;61874;48.146;11.594;2022-08-19T12:48:58;2.60;;;1.15;;
73597;SDS011;61874;48.146;11.594;2022-08-19T12:51:24;2.80;;;1.17;;
73597;SDS011;61874;48.146;11.594;2022-08-19T12:53:50;2.45;;;1.15;;
73597;SDS011;61874;48.146;11.594;2022-08-19T12:56:15;2.65;;;1.20;;
73597;SDS011;61874;48.146;11.594;2022-08-19T12:58:42;1.75;;;1.10;;
73597;SDS011;61874;48.146;11.594;2022-08-19T13:01:14;2.58;;;1.17;;
73597;SDS011;61874;48.146;11.594;2022-08-19T13:03:41;2.58;;;1.23;;
73597;SDS011;61874;48.146;11.594;2022-08-19T13:06:08;2.08;;;1.20;;
73597;SDS011;61874;48.146;11.594;2022-08-19T13:08:34;3.22;;;1.35;;
73597;SDS011;61874;48.146;11.594;2022-08-19T13:11:13;5.45;;;1.27;;
73597;SDS011;61874;48.146;11.594;2022-08-19T13:13:42;2.35;;;1.25;;
73597;SDS011;61874;48.146;11.594;2022-08-19T13:16:09;2.03;;;1.00;;
73597;SDS011;61874;48.146;11.594;2022-08-19T13:18:36;2.53;;;1.33;;
73597;SDS011;61874;48.146;11.594;2022-08-19T13:21:05;3.10;;;1.10;;
73597;SDS011;61874;48.146;11.594;2022-08-19T13:23:34;2.33;;;1.33;;
73597;SDS011;61874;48.146;11.594;2022-08-19T13:26:01;2.50;;;1.20;;
73597;SDS011;61874;48.146;11.594;2022-08-19T13:28:30;2.25;;;1.20;;
73597;SDS011;61874;48.146;11.594;2022-08-19T13:31:17;2.08;;;1.15;;
73597;SDS011;61874;48.146;11.594;2022-08-19T13:34:01;2.67;;;1.20;;
73597;SDS011;61874;48.146;11.594;2022-08-19T13:36:27;2.42;;;1.23;;
73597;SDS011;61874;48.146;11.594;2022-08-19T13:38:53;2.50;;;1.10;;
73597;SDS011;61874;48.146;11.594;2022-08-19T13:41:19;2.20;;;1.30;;
73597;SDS011;61874;48.146;11.594;2022-08-19T13:43:44;1.85;;;1.05;;
73597;SDS011;61874;48.146;11.594;2022-08-19T13:46:10;1.58;;;0.93;;
73597;SDS011;61874;48.146;11.594;2022-08-19T13:48:39;2.70;;;1.17;;
73597;SDS011;61874;48.146;11.594;2022-08-19T13:51:06;2.65;;;1.20;;
73597;SDS011;61874;48.146;11.594;2022-08-19T13:53:37;2.60;;;1.15;;
73597;SDS011;61874;48.146;11.594;2022-08-19T13:56:08;3.08;;;1.40;;
73597;SDS011;61874;48.146;11.594;2022-08-19T13:58:36;2.80;;;1.40;;
73597;SDS011;61874;48.146;11.594;2022-08-19T14:01:02;2.33;;;1.30;;
73597;SDS011;61874;48.146;11.594;2022-08-19T14:03:28;4.28;;;1.80;;
73597;SDS011;61874;48.146;11.594;2022-08-19T14:05:55;2.85;;;1.50;;
73597;SDS011;61874;48.146;11.594;2022-08-19T14:08:20;3.58;;;1.70;;
73597;SDS011;61874;48.146;11.594;2022-08-19T14:10:46;3.83;;;1.70;;
73597;SDS011;61874;48.146;11.594;2022-08-19T14:13:16;3.17;;;1.40;;
73597;SDS011;61874;48.146;11.594;2022-08-19T14:15:44;4.03;;;1.98;;
73597;SDS011;61874;48.146;11.594;2022-08-19T14:18:10;2.80;;;1.55;;
73597;SDS011;61874;48.146;11.594;2022-08-19T14:20:36;4.95;;;2.05;;
73597;SDS011;61874;48.146;11.594;2022-08-19T14:23:02;3.70;;;2.00;;
73597;SDS011;61874;48.146;11.594;2022-08-19T14:25:30;3.63;;;1.85;;
73597;SDS011;61874;48.146;11.594;2022-08-19T14:27:56;3.80;;;1.90;;
73597;SDS011;61874;48.146;11.594;2022-08-19T14:30:29;4.95;;;1.95;;
73597;SDS011;61874;48.146;11.594;2022-08-19T14:32:57;3.67;;;1.90;;
73597;SDS011;61874;48.146;11.594;2022-08-19T14:35:26;4.13;;;2.10;;
73597;SDS011;61874;48.146;11.594;2022-08-19T14:37:52;3.20;;;2.08;;
73597;SDS011;61874;48.146;11.594;2022-08-19T14:40:21;3.78;;;2.10;;
73597;SDS011;61874;48.146;11.594;2022-08-19T14:43:02;4.57;;;1.95;;
73597;SDS011;61874;48.146;11.594;2022-08-19T14:45:36;6.22;;;2.35;;
73597;SDS011;61874;48.146;11.594;2022-08-19T14:50:32;5.35;;;2.10;;
73597;SDS011;61874;48.146;11.594;2022-08-19T14:52:59;6.28;;;2.30;;
73597;SDS011;61874;48.146;11.594;2022-08-19T14:55:28;4.40;;;2.10;;
73597;SDS011;61874;48.146;11.594;2022-08-19T14:57:54;3.55;;;1.80;;
73597;SDS011;61874;48.146;11.594;2022-08-19T15:00:19;4.70;;;2.22;;